createdAt,value
2023-11-24T00:01:33.383Z,1.00
2023-11-24T00:04:01.748Z,1.20
2023-11-24T00:06:30.074Z,1.30
2023-11-24T00:08:58.153Z,1.70
2023-11-24T00:11:27.672Z,1.70
2023-11-24T00:13:56.017Z,1.70
2023-11-24T00:16:24.317Z,1.30
2023-11-24T00:18:52.673Z,1.80
2023-11-24T00:21:21.168Z,1.50
2023-11-24T00:23:49.585Z,2.00
2023-11-24T00:26:22.281Z,1.10
2023-11-24T00:28:57.298Z,1.10
2023-11-24T00:31:28.182Z,1.30
2023-11-24T00:33:59.839Z,1.60
2023-11-24T00:36:28.604Z,1.40
2023-11-24T00:38:56.893Z,1.20
2023-11-24T00:41:25.004Z,1.00
2023-11-24T00:43:53.245Z,1.50
2023-11-24T00:46:23.164Z,1.10
2023-11-24T00:48:52.946Z,1.10
2023-11-24T00:51:21.202Z,1.60
2023-11-24T00:53:49.689Z,0.90
2023-11-24T00:56:17.853Z,0.80
2023-11-24T00:58:46.159Z,0.70
2023-11-24T01:01:14.455Z,0.70
2023-11-24T01:03:42.862Z,0.90
2023-11-24T01:06:11.451Z,1.30
2023-11-24T01:08:39.661Z,1.40
2023-11-24T01:11:08.198Z,0.80
2023-11-24T01:13:38.239Z,1.10
2023-11-24T01:16:06.529Z,1.00
2023-11-24T01:18:38.754Z,1.00
2023-11-24T01:21:08.265Z,1.00
2023-11-24T01:23:36.976Z,1.60
2023-11-24T01:26:06.637Z,1.30
2023-11-24T01:28:35.469Z,0.90
2023-11-24T01:31:03.787Z,1.20
2023-11-24T01:33:32.088Z,0.90
2023-11-24T01:36:02.209Z,0.90
2023-11-24T01:38:30.465Z,1.60
2023-11-24T01:40:58.685Z,0.90
2023-11-24T01:43:26.876Z,0.90
2023-11-24T01:45:55.555Z,1.00
2023-11-24T01:48:24.149Z,1.30
2023-11-24T01:50:52.579Z,1.10
2023-11-24T01:53:20.910Z,0.80
2023-11-24T01:55:49.934Z,1.00
2023-11-24T01:58:18.376Z,1.10
2023-11-24T02:00:47.683Z,0.90
2023-11-24T02:03:15.905Z,0.80
2023-11-24T02:05:44.728Z,1.00
2023-11-24T02:08:12.980Z,0.90
2023-11-24T02:10:41.252Z,1.10
2023-11-24T02:13:09.465Z,1.00
2023-11-24T02:15:40.203Z,0.80
2023-11-24T02:18:08.552Z,1.00
2023-11-24T02:20:38.431Z,1.00
2023-11-24T02:23:06.782Z,1.00
2023-11-24T02:25:34.912Z,1.10
2023-11-24T02:28:03.023Z,1.00
2023-11-24T02:30:31.626Z,1.00
2023-11-24T02:32:59.996Z,1.00
2023-11-24T02:35:30.585Z,1.00
2023-11-24T02:37:58.935Z,1.00
2023-11-24T02:40:27.147Z,1.10
2023-11-24T02:42:56.325Z,0.90
2023-11-24T02:45:24.460Z,1.10
2023-11-24T02:47:52.835Z,0.90
2023-11-24T02:50:21.049Z,1.80
2023-11-24T02:52:50.743Z,1.10
2023-11-24T02:55:19.840Z,0.90
2023-11-24T02:57:49.762Z,1.30
2023-11-24T03:00:19.639Z,1.10
2023-11-24T03:02:47.905Z,1.10
2023-11-24T03:05:16.791Z,0.90
2023-11-24T03:07:44.977Z,1.20
2023-11-24T03:10:13.225Z,1.20
2023-11-24T03:12:41.434Z,1.10
2023-11-24T03:15:12.513Z,2.00
2023-11-24T03:17:41.557Z,1.10
2023-11-24T03:20:13.397Z,1.80
2023-11-24T03:22:41.666Z,1.20
2023-11-24T03:25:11.561Z,1.00
2023-11-24T03:27:39.815Z,0.90
2023-11-24T03:30:08.516Z,0.90
2023-11-24T03:32:36.954Z,1.00
2023-11-24T03:35:06.546Z,1.10
2023-11-24T03:37:35.106Z,1.20
2023-11-24T03:40:03.552Z,1.80
2023-11-24T03:42:31.785Z,1.10
2023-11-24T03:44:59.910Z,1.30
2023-11-24T03:47:30.009Z,1.40
2023-11-24T03:50:00.924Z,1.30
2023-11-24T03:52:29.604Z,1.20
2023-11-24T03:54:57.825Z,1.40
2023-11-24T03:57:26.217Z,1.20
2023-11-24T03:59:54.311Z,1.40
2023-11-24T04:02:22.485Z,1.50
2023-11-24T04:04:50.662Z,1.50
2023-11-24T04:07:18.787Z,1.30
2023-11-24T04:09:47.069Z,1.30
2023-11-24T04:12:15.230Z,1.60
2023-11-24T04:14:43.442Z,1.50
2023-11-24T04:17:12.033Z,1.40
2023-11-24T04:19:40.266Z,2.00
2023-11-24T04:22:08.522Z,1.20
2023-11-24T04:24:36.894Z,1.20
2023-11-24T04:27:05.519Z,1.50
2023-11-24T04:29:33.847Z,1.60
2023-11-24T04:32:01.985Z,1.10
2023-11-24T04:34:30.202Z,1.20
2023-11-24T04:36:58.490Z,1.80
2023-11-24T04:39:27.369Z,1.20
2023-11-24T04:41:56.141Z,1.40
2023-11-24T04:44:24.492Z,1.70
2023-11-24T04:46:53.072Z,1.30
2023-11-24T04:49:23.514Z,1.30
2023-11-24T04:51:52.172Z,1.50
2023-11-24T04:54:20.346Z,1.40
2023-11-24T04:56:48.926Z,1.10
2023-11-24T04:59:17.166Z,1.10
2023-11-24T05:01:45.939Z,1.10
2023-11-24T05:04:14.446Z,1.30
2023-11-24T05:06:43.192Z,1.30
2023-11-24T05:09:12.722Z,1.20
2023-11-24T05:11:41.183Z,1.20
2023-11-24T05:14:09.609Z,1.20
2023-11-24T05:16:37.897Z,0.90
2023-11-24T05:19:06.156Z,0.90
2023-11-24T05:21:35.457Z,1.30
2023-11-24T05:24:03.794Z,2.20
2023-11-24T05:26:32.033Z,1.40
2023-11-24T05:29:00.857Z,1.20
2023-11-24T05:31:29.004Z,1.50
2023-11-24T05:33:57.515Z,1.70
2023-11-24T05:36:25.966Z,1.40
2023-11-24T05:38:54.987Z,1.50
2023-11-24T05:41:23.136Z,1.40
2023-11-24T05:43:51.421Z,1.30
2023-11-24T05:46:20.063Z,1.50
2023-11-24T05:48:48.426Z,1.40
2023-11-24T05:51:16.612Z,1.60
2023-11-24T05:53:44.769Z,1.60
2023-11-24T05:56:13.014Z,1.80
2023-11-24T05:58:41.254Z,1.80
2023-11-24T06:01:09.818Z,1.90
2023-11-24T06:03:38.161Z,1.30
2023-11-24T06:06:07.321Z,1.10
2023-11-24T06:08:35.466Z,1.10
2023-11-24T06:11:03.662Z,0.80
2023-11-24T06:13:32.069Z,0.80
2023-11-24T06:16:00.541Z,0.90
2023-11-24T06:18:29.111Z,0.80
2023-11-24T06:20:57.520Z,1.00
2023-11-24T06:23:25.685Z,1.00
2023-11-24T06:25:53.800Z,1.40
2023-11-24T06:28:22.099Z,1.00
2023-11-24T06:30:50.303Z,1.20
2023-11-24T06:33:18.485Z,1.30
2023-11-24T06:35:46.681Z,1.20
2023-11-24T06:38:15.938Z,1.30
2023-11-24T06:40:45.130Z,1.30
2023-11-24T06:43:13.442Z,2.10
2023-11-24T06:45:41.688Z,1.60
2023-11-24T06:48:10.083Z,1.60
2023-11-24T06:50:38.438Z,1.40
2023-11-24T06:53:06.695Z,1.20
2023-11-24T06:55:35.341Z,1.20
2023-11-24T06:58:05.791Z,1.20
2023-11-24T07:00:34.862Z,1.70
2023-11-24T07:03:03.277Z,2.10
2023-11-24T07:05:31.660Z,2.70
2023-11-24T07:07:59.877Z,3.20
2023-11-24T07:10:28.177Z,3.20
2023-11-24T07:12:56.570Z,2.70
2023-11-24T07:15:24.739Z,1.90
2023-11-24T07:17:52.991Z,1.90
2023-11-24T07:20:23.111Z,1.30
2023-11-24T07:22:51.257Z,1.10
2023-11-24T07:25:19.530Z,1.10
2023-11-24T07:27:48.302Z,1.40
2023-11-24T07:30:16.660Z,1.10
2023-11-24T07:32:44.878Z,2.40
2023-11-24T07:35:15.328Z,3.20
2023-11-24T07:37:44.221Z,2.60
2023-11-24T07:40:16.173Z,2.60
2023-11-24T07:42:45.810Z,3.00
2023-11-24T07:45:14.486Z,3.00
2023-11-24T07:47:42.792Z,4.60
2023-11-24T07:50:11.062Z,2.70
2023-11-24T07:52:39.239Z,1.90
2023-11-24T07:55:07.946Z,1.70
2023-11-24T07:57:36.759Z,1.70
2023-11-24T08:00:06.588Z,1.50
2023-11-24T08:02:41.873Z,1.20
2023-11-24T08:05:10.380Z,1.30
2023-11-24T08:07:38.986Z,1.20
2023-11-24T08:10:07.895Z,1.30
2023-11-24T08:12:36.162Z,1.30
2023-11-24T08:15:06.932Z,1.20
2023-11-24T08:17:35.115Z,1.20
2023-11-24T08:20:06.701Z,1.30
2023-11-24T08:22:35.197Z,1.40
2023-11-24T08:25:04.645Z,1.50
2023-11-24T08:27:34.123Z,1.60
2023-11-24T08:30:06.348Z,1.60
2023-11-24T08:32:34.554Z,1.80
2023-11-24T08:35:02.791Z,1.40
2023-11-24T08:37:31.718Z,1.50
2023-11-24T08:40:00.344Z,1.60
2023-11-24T08:42:31.743Z,1.70
2023-11-24T08:44:59.949Z,1.60
2023-11-24T08:47:29.036Z,1.60
2023-11-24T08:49:59.935Z,1.60
2023-11-24T08:52:28.829Z,1.50
2023-11-24T08:54:57.086Z,1.70
2023-11-24T08:57:25.508Z,1.80
2023-11-24T08:59:55.066Z,1.80
2023-11-24T09:02:23.658Z,2.00
2023-11-24T09:04:52.268Z,2.00
2023-11-24T09:07:20.590Z,2.80
2023-11-24T09:09:48.999Z,2.70
2023-11-24T09:12:17.508Z,2.50
2023-11-24T09:14:45.779Z,2.60
2023-11-24T09:17:14.025Z,2.30
2023-11-24T09:19:42.336Z,2.20
2023-11-24T09:22:11.902Z,2.50
2023-11-24T09:24:40.150Z,1.80
2023-11-24T09:27:08.799Z,2.20
2023-11-24T09:29:36.956Z,1.90
2023-11-24T09:32:05.567Z,2.00
2023-11-24T09:34:34.281Z,1.90
2023-11-24T09:37:03.792Z,2.10
2023-11-24T09:39:32.042Z,2.20
2023-11-24T09:42:03.623Z,2.40
2023-11-24T09:44:32.921Z,2.00
2023-11-24T09:47:01.746Z,2.00
2023-11-24T09:49:30.684Z,2.10
2023-11-24T09:52:01.154Z,2.50
2023-11-24T09:54:29.627Z,2.00
2023-11-24T09:56:58.021Z,2.30
2023-11-24T09:59:26.215Z,2.50
2023-11-24T10:01:58.788Z,2.70
2023-11-24T10:04:27.696Z,2.30
2023-11-24T10:06:56.119Z,2.60
2023-11-24T10:09:26.891Z,2.40
2023-11-24T10:11:56.504Z,2.40
2023-11-24T10:14:24.701Z,2.30
2023-11-24T10:16:53.052Z,2.20
2023-11-24T10:19:23.417Z,2.90
2023-11-24T10:21:54.913Z,2.00
2023-11-24T10:24:26.477Z,1.80
2023-11-24T10:26:55.024Z,1.70
2023-11-24T10:29:28.474Z,1.50
2023-11-24T10:32:07.252Z,1.40
2023-11-24T10:34:35.481Z,1.60
2023-11-24T10:37:06.602Z,2.10
2023-11-24T10:39:35.706Z,4.10
2023-11-24T10:42:06.054Z,2.00
2023-11-24T10:44:39.730Z,1.70
2023-11-24T10:49:43.440Z,1.50
2023-11-24T10:52:23.856Z,1.80
2023-11-24T10:55:02.099Z,1.70
2023-11-24T10:57:33.644Z,2.10
2023-11-24T11:00:04.754Z,2.50
2023-11-24T11:02:37.867Z,3.40
2023-11-24T11:05:12.250Z,2.70
2023-11-24T11:07:55.628Z,2.10
2023-11-24T11:10:30.394Z,1.50
2023-11-24T11:13:01.702Z,1.50
2023-11-24T11:15:33.161Z,1.60
2023-11-24T11:18:17.132Z,1.40
2023-11-24T11:20:46.595Z,1.20
2023-11-24T11:23:17.490Z,1.20
2023-11-24T11:25:53.693Z,1.50
2023-11-24T11:28:25.182Z,1.80
2023-11-24T11:31:00.855Z,1.80
2023-11-24T11:33:30.602Z,1.50
2023-11-24T11:36:00.305Z,1.80
2023-11-24T11:38:45.336Z,1.60
2023-11-24T11:41:37.070Z,1.90
2023-11-24T11:44:18.244Z,2.00
2023-11-24T11:47:24.069Z,2.40
2023-11-24T11:49:57.318Z,2.20
2023-11-24T11:52:27.780Z,2.00
2023-11-24T11:55:02.141Z,2.10
2023-11-24T11:57:30.574Z,2.30
2023-11-24T11:59:58.699Z,2.70
2023-11-24T12:02:28.136Z,2.80
2023-11-24T12:04:56.550Z,2.40
2023-11-24T12:07:25.614Z,2.40
2023-11-24T12:09:53.797Z,2.40
2023-11-24T12:12:22.012Z,2.30
2023-11-24T12:14:52.539Z,2.10
2023-11-24T12:17:22.533Z,2.50
2023-11-24T12:19:50.872Z,2.30
2023-11-24T12:22:20.081Z,2.20
2023-11-24T12:24:48.767Z,1.90
2023-11-24T12:27:17.125Z,1.80
2023-11-24T12:29:47.682Z,1.90
2023-11-24T12:32:16.049Z,2.20
2023-11-24T12:34:46.566Z,1.90
2023-11-24T12:37:15.288Z,2.40
2023-11-24T12:39:43.889Z,2.20
2023-11-24T12:42:12.434Z,1.90
2023-11-24T12:44:41.277Z,2.50
2023-11-24T12:47:09.808Z,2.50
2023-11-24T12:50:14.619Z,2.80
2023-11-24T12:52:45.579Z,2.60
2023-11-24T12:55:14.206Z,2.30
2023-11-24T12:57:45.767Z,2.90
2023-11-24T13:00:15.562Z,2.60
2023-11-24T13:02:45.607Z,2.90
2023-11-24T13:05:14.896Z,3.30
2023-11-24T13:07:44.013Z,3.20
2023-11-24T13:10:12.986Z,3.60
2023-11-24T13:12:42.513Z,3.30
2023-11-24T13:15:11.326Z,3.20
2023-11-24T13:17:40.196Z,3.10
2023-11-24T13:20:13.055Z,3.60
2023-11-24T13:22:42.296Z,3.10
2023-11-24T13:25:11.956Z,3.50
2023-11-24T13:27:42.710Z,3.60
2023-11-24T13:30:13.326Z,3.90
2023-11-24T13:32:43.064Z,5.10
2023-11-24T13:35:12.695Z,5.10
2023-11-24T13:37:42.254Z,4.30
2023-11-24T13:40:13.208Z,4.90
2023-11-24T13:42:41.625Z,4.90
2023-11-24T13:45:12.843Z,4.10
2023-11-24T13:47:42.568Z,4.30
2023-11-24T13:50:12.581Z,4.60
2023-11-24T13:52:43.114Z,4.40
2023-11-24T13:55:13.140Z,4.30
2023-11-24T13:57:41.644Z,3.90
2023-11-24T14:00:12.097Z,3.60
2023-11-24T14:02:41.811Z,3.40
2023-11-24T14:05:10.628Z,3.30
2023-11-24T14:07:39.242Z,3.00
2023-11-24T14:10:07.984Z,3.80
2023-11-24T14:12:36.549Z,3.70
2023-11-24T14:15:05.827Z,4.10
2023-11-24T14:17:37.059Z,4.70
2023-11-24T14:20:08.227Z,5.60
2023-11-24T14:22:38.394Z,4.50
2023-11-24T14:25:10.290Z,4.90
2023-11-24T14:27:41.912Z,5.40
2023-11-24T14:30:10.580Z,5.50
2023-11-24T14:32:38.744Z,4.50
2023-11-24T14:35:07.946Z,8.10
2023-11-24T14:37:36.169Z,8.00
2023-11-24T14:40:08.460Z,8.90
2023-11-24T14:42:36.669Z,7.80
2023-11-24T14:45:05.817Z,7.90
2023-11-24T14:47:34.054Z,7.90
2023-11-24T14:50:06.270Z,9.30
2023-11-24T14:52:34.475Z,7.80
2023-11-24T14:55:05.918Z,8.20
2023-11-24T14:57:34.243Z,6.30
2023-11-24T15:00:19.854Z,4.30
2023-11-24T15:02:49.526Z,3.90
2023-11-24T15:05:18.555Z,3.60
2023-11-24T15:07:48.310Z,3.70
2023-11-24T15:10:19.640Z,3.90
2023-11-24T15:12:49.223Z,4.10
2023-11-24T15:15:20.878Z,3.80
2023-11-24T15:17:52.730Z,4.00
2023-11-24T15:20:27.492Z,3.70
2023-11-24T15:22:59.663Z,3.70
2023-11-24T15:25:28.654Z,5.40
2023-11-24T15:28:03.421Z,8.80
2023-11-24T15:30:33.085Z,14.60
2023-11-24T15:33:01.235Z,12.30
2023-11-24T15:35:29.488Z,8.20
2023-11-24T15:37:57.763Z,10.40
2023-11-24T15:40:26.718Z,8.40
2023-11-24T15:42:56.463Z,9.20
2023-11-24T15:45:25.259Z,9.00
2023-11-24T15:48:06.187Z,10.50
2023-11-24T15:50:39.659Z,8.30
2023-11-24T15:53:08.614Z,7.60
2023-11-24T15:55:40.791Z,7.50
2023-11-24T15:58:13.027Z,7.10
2023-11-24T16:00:46.480Z,8.80
2023-11-24T16:03:21.997Z,6.40
2023-11-24T16:05:50.778Z,6.90
2023-11-24T16:08:22.138Z,5.40
2023-11-24T16:10:59.090Z,5.10
2023-11-24T16:13:27.357Z,4.20
2023-11-24T16:15:55.535Z,4.20
2023-11-24T16:18:34.754Z,3.90
2023-11-24T16:21:04.246Z,3.70
2023-11-24T16:23:32.620Z,3.50
2023-11-24T16:26:00.965Z,3.50
2023-11-24T16:28:29.474Z,3.50
2023-11-24T16:30:57.686Z,3.90
2023-11-24T16:33:26.000Z,4.00
2023-11-24T16:35:58.774Z,3.70
2023-11-24T16:38:26.956Z,4.50
2023-11-24T16:40:55.287Z,3.70
2023-11-24T16:43:23.571Z,4.50
2023-11-24T16:45:51.833Z,4.60
2023-11-24T16:48:20.080Z,4.40
2023-11-24T16:50:48.504Z,5.80
2023-11-24T16:53:16.799Z,6.50
2023-11-24T16:55:47.377Z,7.90
2023-11-24T16:58:16.609Z,8.00
2023-11-24T17:00:46.656Z,12.00
2023-11-24T17:03:14.853Z,11.90
2023-11-24T17:05:43.199Z,11.60
2023-11-24T17:08:11.432Z,12.70
2023-11-24T17:10:39.742Z,13.30
2023-11-24T17:13:07.998Z,13.50
2023-11-24T17:15:36.108Z,15.40
2023-11-24T17:18:07.649Z,15.90
2023-11-24T17:20:37.093Z,16.00
2023-11-24T17:23:05.278Z,15.50
2023-11-24T17:25:37.044Z,15.70
2023-11-24T17:28:06.377Z,17.40
2023-11-24T17:30:35.158Z,18.80
2023-11-24T17:33:03.505Z,18.80
2023-11-24T17:35:31.708Z,19.80
2023-11-24T17:38:00.055Z,17.90
2023-11-24T17:40:28.894Z,16.10
2023-11-24T17:42:57.332Z,16.50
2023-11-24T17:45:25.532Z,14.70
2023-11-24T17:47:54.811Z,14.10
2023-11-24T17:50:24.943Z,16.50
2023-11-24T17:52:53.228Z,13.30
2023-11-24T17:55:21.887Z,15.40
2023-11-24T17:57:50.802Z,14.70
2023-11-24T18:00:22.579Z,14.80
2023-11-24T18:02:51.327Z,14.40
2023-11-24T18:05:19.745Z,13.60
2023-11-24T18:07:47.954Z,11.70
2023-11-24T18:10:16.622Z,10.50
2023-11-24T18:12:44.975Z,10.80
2023-11-24T18:15:14.939Z,12.60
2023-11-24T18:17:43.343Z,12.80
2023-11-24T18:20:14.612Z,9.70
2023-11-24T18:22:43.798Z,8.10
2023-11-24T18:25:13.538Z,7.00
2023-11-24T18:27:41.907Z,7.20
2023-11-24T18:30:11.289Z,5.90
2023-11-24T18:32:40.525Z,6.30
2023-11-24T18:35:09.866Z,8.80
2023-11-24T18:37:39.041Z,10.80
2023-11-24T18:40:09.681Z,9.10
2023-11-24T18:42:38.078Z,8.80
2023-11-24T18:45:07.936Z,6.90
2023-11-24T18:47:36.280Z,5.90
2023-11-24T18:50:07.423Z,5.40
2023-11-24T18:52:36.084Z,3.90
2023-11-24T18:55:08.099Z,4.20
2023-11-24T18:57:36.461Z,3.90
2023-11-24T19:00:06.102Z,4.30
2023-11-24T19:02:36.245Z,3.80
2023-11-24T19:05:07.190Z,4.20
2023-11-24T19:07:35.626Z,4.20
2023-11-24T19:10:04.444Z,4.60
2023-11-24T19:12:32.648Z,4.50
2023-11-24T19:15:00.950Z,4.80
2023-11-24T19:17:29.298Z,4.90
2023-11-24T19:19:57.461Z,5.30
2023-11-24T19:22:25.666Z,5.00
2023-11-24T19:24:53.861Z,5.60
2023-11-24T19:27:22.006Z,5.60
2023-11-24T19:29:50.219Z,7.80
2023-11-24T19:32:18.382Z,7.30
2023-11-24T19:34:46.566Z,9.60
2023-11-24T19:37:14.775Z,9.10
2023-11-24T19:39:44.573Z,8.70
2023-11-24T19:42:12.697Z,8.20
2023-11-24T19:44:41.075Z,8.40
2023-11-24T19:47:11.935Z,10.30
2023-11-24T19:49:40.089Z,9.10
2023-11-24T19:52:10.515Z,11.30
2023-11-24T19:54:39.029Z,12.00
2023-11-24T19:57:07.251Z,10.80
2023-11-24T19:59:35.581Z,12.50
2023-11-24T20:02:06.233Z,12.70
2023-11-24T20:04:35.367Z,11.00
2023-11-24T20:07:03.739Z,10.40
2023-11-24T20:09:31.942Z,11.00
2023-11-24T20:12:00.163Z,10.70
2023-11-24T20:14:29.076Z,9.00
2023-11-24T20:16:57.367Z,8.10
2023-11-24T20:19:25.755Z,7.90
2023-11-24T20:21:55.029Z,8.30
2023-11-24T20:24:23.820Z,7.80
2023-11-24T20:26:51.980Z,8.00
2023-11-24T20:29:22.042Z,7.40
2023-11-24T20:31:50.368Z,7.70
2023-11-24T20:34:18.686Z,7.90
2023-11-24T20:36:48.278Z,7.60
2023-11-24T20:39:17.247Z,7.20
2023-11-24T20:41:45.751Z,6.60
2023-11-24T20:44:14.857Z,6.50
2023-11-24T20:46:43.394Z,5.50
2023-11-24T20:49:11.706Z,6.30
2023-11-24T20:51:41.660Z,5.20
2023-11-24T20:54:09.831Z,5.70
2023-11-24T20:56:38.156Z,5.70
2023-11-24T20:59:06.383Z,5.80
2023-11-24T21:01:36.286Z,6.20
2023-11-24T21:04:05.740Z,6.10
2023-11-24T21:06:34.831Z,5.70
2023-11-24T21:09:04.198Z,6.30
2023-11-24T21:11:33.628Z,8.00
2023-11-24T21:14:01.950Z,7.80
2023-11-24T21:16:30.206Z,7.50
2023-11-24T21:18:58.521Z,7.40
2023-11-24T21:21:26.846Z,6.40
2023-11-24T21:23:55.004Z,6.00
2023-11-24T21:26:23.298Z,6.50
2023-11-24T21:28:51.970Z,6.40
2023-11-24T21:31:21.284Z,7.20
2023-11-24T21:33:51.908Z,7.20
2023-11-24T21:36:20.558Z,7.30
2023-11-24T21:38:48.785Z,6.80
2023-11-24T21:41:23.318Z,6.20
2023-11-24T21:43:51.493Z,7.00
2023-11-24T21:46:21.481Z,5.90
2023-11-24T21:48:50.602Z,5.70
2023-11-24T21:51:18.930Z,5.70
2023-11-24T21:53:47.161Z,4.40
2023-11-24T21:56:24.664Z,3.20
2023-11-24T21:58:57.146Z,2.70
2023-11-24T22:01:25.691Z,2.20
2023-11-24T22:03:56.750Z,2.00
2023-11-24T22:06:29.723Z,1.30
2023-11-24T22:08:58.043Z,1.40
2023-11-24T22:11:26.435Z,1.30
2023-11-24T22:13:54.616Z,1.20
2023-11-24T22:16:22.835Z,1.40
2023-11-24T22:18:51.647Z,1.50
2023-11-24T22:21:20.117Z,1.70
2023-11-24T22:23:48.514Z,2.00
2023-11-24T22:26:20.187Z,2.00
2023-11-24T22:28:50.484Z,2.40
2023-11-24T22:31:19.055Z,2.70
2023-11-24T22:33:47.582Z,3.20
2023-11-24T22:36:20.672Z,2.80
2023-11-24T22:41:22.497Z,2.50
2023-11-24T22:43:53.772Z,2.60
2023-11-24T22:46:24.398Z,2.90
2023-11-24T22:48:54.022Z,3.00
2023-11-24T22:51:23.599Z,3.00
2023-11-24T22:53:51.951Z,3.40
2023-11-24T22:56:28.055Z,3.00
2023-11-24T22:58:57.442Z,3.20
2023-11-24T23:01:26.956Z,3.90
2023-11-24T23:03:57.543Z,3.40
2023-11-24T23:06:26.857Z,3.50
2023-11-24T23:08:57.393Z,3.50
2023-11-24T23:11:29.041Z,3.30
2023-11-24T23:13:58.481Z,13.70
2023-11-24T23:16:27.767Z,6.80
2023-11-24T23:18:58.431Z,6.40
2023-11-24T23:21:26.675Z,4.40
2023-11-24T23:23:56.698Z,4.00
2023-11-24T23:26:26.537Z,4.60
2023-11-24T23:28:55.066Z,11.50
2023-11-24T23:31:26.711Z,12.90
2023-11-24T23:33:56.493Z,10.60
2023-11-24T23:36:24.748Z,10.00
2023-11-24T23:38:53.004Z,7.20
2023-11-24T23:41:22.135Z,6.90
2023-11-24T23:43:50.721Z,5.50
2023-11-24T23:46:19.665Z,5.30
2023-11-24T23:48:48.831Z,4.90
2023-11-24T23:51:18.045Z,4.60
2023-11-24T23:53:46.189Z,5.60
2023-11-24T23:56:14.496Z,5.60
2023-11-24T23:58:42.749Z,4.70
